createdAt,value
2019-01-25T00:00:41.742Z,85.78
2019-01-25T00:01:41.734Z,85.99
2019-01-25T00:02:41.764Z,86.52
2019-01-25T00:03:41.735Z,85.99
2019-01-25T00:04:41.708Z,86.20
2019-01-25T00:05:41.689Z,86.20
2019-01-25T00:06:41.682Z,86.20
2019-01-25T00:07:41.686Z,86.52
2019-01-25T00:08:41.726Z,86.37
2019-01-25T00:09:41.692Z,87.25
2019-01-25T00:10:41.673Z,86.83
2019-01-25T00:11:41.648Z,86.72
2019-01-25T00:12:41.621Z,86.62
2019-01-25T00:13:41.656Z,86.72
2019-01-25T00:14:41.610Z,86.52
2019-01-25T00:15:41.592Z,86.72
2019-01-25T00:16:41.572Z,86.37
2019-01-25T00:17:41.601Z,86.52
2019-01-25T00:18:41.577Z,86.16
2019-01-25T00:19:41.566Z,86.47
2019-01-25T00:20:41.540Z,86.72
2019-01-25T00:21:41.527Z,86.47
2019-01-25T00:22:41.599Z,86.37
2019-01-25T00:23:41.540Z,86.41
2019-01-25T00:24:41.496Z,86.94
2019-01-25T00:25:41.505Z,87.04
2019-01-25T00:26:41.472Z,86.27
2019-01-25T00:27:41.469Z,86.30
2019-01-25T00:28:41.499Z,86.52
2019-01-25T00:29:41.475Z,86.52
2019-01-25T00:30:41.428Z,86.52
2019-01-25T00:31:41.418Z,86.72
2019-01-25T00:32:41.406Z,86.79
2019-01-25T00:33:41.412Z,86.94
2019-01-25T00:34:41.414Z,86.47
2019-01-25T00:35:41.378Z,86.20
2019-01-25T00:36:41.371Z,86.47
2019-01-25T00:37:41.358Z,85.64
2019-01-25T00:38:41.346Z,85.78
2019-01-25T00:39:41.438Z,86.30
2019-01-25T00:40:42.080Z,86.27
2019-01-25T00:41:41.372Z,86.47
2019-01-25T00:42:41.332Z,86.27
2019-01-25T00:43:41.303Z,85.95
2019-01-25T00:44:41.311Z,85.78
2019-01-25T00:45:41.298Z,85.85
2019-01-25T00:46:41.286Z,86.10
2019-01-25T00:47:41.271Z,86.06
2019-01-25T00:48:41.239Z,86.27
2019-01-25T00:49:41.263Z,86.27
2019-01-25T00:50:41.247Z,86.47
2019-01-25T00:51:41.207Z,86.47
2019-01-25T00:52:41.203Z,86.37
2019-01-25T00:53:41.236Z,86.06
2019-01-25T00:54:41.187Z,86.58
2019-01-25T00:55:41.242Z,85.95
2019-01-25T00:56:41.191Z,86.37
2019-01-25T00:57:41.156Z,86.20
2019-01-25T00:58:41.164Z,86.06
2019-01-25T00:59:41.164Z,86.37
2019-01-25T01:00:41.127Z,86.16
2019-01-25T01:01:41.169Z,86.47
2019-01-25T01:02:41.092Z,86.27
2019-01-25T01:03:41.083Z,86.16
2019-01-25T01:04:41.124Z,86.16
2019-01-25T01:05:41.092Z,86.37
2019-01-25T01:06:41.084Z,86.16
2019-01-25T01:07:41.051Z,86.27
2019-01-25T01:08:41.060Z,86.27
2019-01-25T01:09:41.038Z,86.37
2019-01-25T01:10:41.043Z,86.16
2019-01-25T01:11:41.031Z,86.16
2019-01-25T01:12:41.021Z,86.47
2019-01-25T01:13:41.065Z,86.27
2019-01-25T01:14:40.970Z,86.37
2019-01-25T01:15:40.982Z,86.27
2019-01-25T01:16:40.947Z,86.37
2019-01-25T01:17:41.053Z,86.58
2019-01-25T01:18:40.945Z,86.69
2019-01-25T01:19:40.940Z,86.79
2019-01-25T01:20:40.906Z,86.58
2019-01-25T01:21:40.925Z,86.47
2019-01-25T01:22:40.886Z,86.69
2019-01-25T01:23:40.910Z,86.37
2019-01-25T01:24:40.865Z,86.47
2019-01-25T01:25:40.897Z,86.90
2019-01-25T01:26:40.861Z,87.00
2019-01-25T01:27:40.834Z,87.00
2019-01-25T01:28:40.857Z,86.79
2019-01-25T01:29:40.886Z,86.90
2019-01-25T01:30:40.802Z,87.42
2019-01-25T01:31:40.794Z,87.42
2019-01-25T01:32:40.826Z,86.90
2019-01-25T01:33:40.788Z,87.11
2019-01-25T01:34:40.815Z,87.21
2019-01-25T01:35:40.756Z,87.21
2019-01-25T01:36:40.738Z,87.00
2019-01-25T01:37:40.732Z,86.79
2019-01-25T01:38:40.745Z,86.69
2019-01-25T01:39:40.741Z,86.69
2019-01-25T01:40:40.700Z,86.58
2019-01-25T01:41:40.693Z,86.79
2019-01-25T01:42:40.699Z,86.37
2019-01-25T01:43:40.668Z,86.27
2019-01-25T01:44:40.695Z,86.69
2019-01-25T01:45:40.650Z,86.37
2019-01-25T01:46:40.657Z,86.58
2019-01-25T01:47:40.625Z,86.69
2019-01-25T01:48:40.627Z,86.69
2019-01-25T01:49:40.610Z,86.79
2019-01-25T01:50:40.626Z,86.79
2019-01-25T01:51:40.653Z,86.47
2019-01-25T01:52:40.577Z,86.27
2019-01-25T01:53:40.562Z,86.58
2019-01-25T01:54:40.550Z,86.79
2019-01-25T01:55:40.652Z,86.47
2019-01-25T01:56:40.531Z,86.69
2019-01-25T01:57:40.521Z,87.32
2019-01-25T01:58:40.553Z,87.21
2019-01-25T01:59:40.538Z,87.32
2019-01-25T02:00:40.512Z,87.11
2019-01-25T02:01:40.485Z,86.79
2019-01-25T02:02:40.480Z,86.37
2019-01-25T02:03:40.526Z,86.37
2019-01-25T02:04:40.448Z,86.69
2019-01-25T02:05:40.484Z,86.47
2019-01-25T02:06:40.470Z,86.47
2019-01-25T02:07:40.416Z,86.54
2019-01-25T02:08:40.403Z,86.79
2019-01-25T02:09:40.402Z,86.47
2019-01-25T02:10:40.414Z,86.79
2019-01-25T02:11:40.410Z,86.58
2019-01-25T02:12:40.388Z,86.33
2019-01-25T02:13:40.373Z,86.44
2019-01-25T02:14:40.341Z,86.16
2019-01-25T02:15:40.354Z,86.37
2019-01-25T02:16:40.392Z,86.37
2019-01-25T02:17:40.311Z,86.47
2019-01-25T02:18:40.305Z,86.58
2019-01-25T02:19:40.291Z,86.27
2019-01-25T02:20:40.308Z,86.58
2019-01-25T02:21:40.273Z,86.54
2019-01-25T02:22:40.291Z,86.86
2019-01-25T02:23:40.248Z,86.65
2019-01-25T02:24:40.240Z,86.27
2019-01-25T02:25:40.300Z,86.27
2019-01-25T02:26:40.217Z,86.44
2019-01-25T02:27:40.254Z,86.33
2019-01-25T02:28:40.218Z,86.54
2019-01-25T02:29:40.184Z,86.69
2019-01-25T02:30:40.196Z,86.47
2019-01-25T02:31:40.167Z,86.33
2019-01-25T02:32:40.257Z,86.65
2019-01-25T02:33:40.189Z,86.44
2019-01-25T02:34:40.139Z,86.54
2019-01-25T02:35:40.208Z,86.54
2019-01-25T02:36:40.207Z,86.86
2019-01-25T02:37:40.103Z,86.54
2019-01-25T02:38:40.137Z,86.76
2019-01-25T02:39:40.090Z,86.54
2019-01-25T02:40:40.075Z,86.54
2019-01-25T02:41:40.144Z,86.76
2019-01-25T02:42:40.049Z,86.65
2019-01-25T02:43:40.065Z,86.44
2019-01-25T02:44:40.129Z,86.54
2019-01-25T02:45:40.025Z,86.37
2019-01-25T02:46:40.007Z,86.69
2019-01-25T02:47:40.045Z,86.65
2019-01-25T02:48:40.041Z,86.76
2019-01-25T02:49:39.991Z,86.65
2019-01-25T02:50:39.970Z,86.65
2019-01-25T02:51:39.998Z,86.96
2019-01-25T02:52:39.975Z,86.44
2019-01-25T02:53:39.966Z,86.16
2019-01-25T02:54:40.025Z,86.47
2019-01-25T02:55:39.914Z,85.95
2019-01-25T02:56:39.917Z,86.37
2019-01-25T02:57:39.921Z,86.23
2019-01-25T02:58:39.941Z,86.37
2019-01-25T02:59:40.005Z,86.23
2019-01-25T03:00:39.865Z,86.44
2019-01-25T03:01:39.854Z,86.27
2019-01-25T03:02:39.843Z,86.23
2019-01-25T03:03:39.846Z,86.12
2019-01-25T03:04:39.861Z,86.33
2019-01-25T03:05:39.813Z,86.33
2019-01-25T03:06:39.815Z,86.23
2019-01-25T03:07:39.842Z,86.44
2019-01-25T03:08:39.783Z,86.33
2019-01-25T03:09:39.823Z,86.23
2019-01-25T03:10:47.101Z,86.23
2019-01-25T03:11:40.759Z,86.12
2019-01-25T03:12:39.741Z,86.16
2019-01-25T03:13:39.728Z,86.16
2019-01-25T03:14:39.716Z,86.33
2019-01-25T03:15:39.733Z,86.33
2019-01-25T03:16:39.726Z,86.54
2019-01-25T03:17:39.689Z,86.65
2019-01-25T03:18:39.684Z,86.54
2019-01-25T03:19:39.664Z,86.33
2019-01-25T03:20:39.683Z,86.86
2019-01-25T03:21:39.656Z,86.37
2019-01-25T03:22:39.633Z,86.44
2019-01-25T03:23:39.667Z,86.79
2019-01-25T03:24:39.661Z,87.07
2019-01-25T03:25:39.628Z,86.96
2019-01-25T03:26:39.598Z,87.17
2019-01-25T03:27:39.586Z,86.76
2019-01-25T03:28:39.575Z,86.37
2019-01-25T03:29:39.559Z,86.65
2019-01-25T03:30:39.587Z,86.86
2019-01-25T03:31:39.623Z,87.38
2019-01-25T03:32:39.541Z,86.90
2019-01-25T03:33:39.535Z,87.11
2019-01-25T03:34:39.535Z,86.65
2019-01-25T03:35:39.503Z,86.65
2019-01-25T03:36:39.515Z,86.76
2019-01-25T03:37:39.476Z,86.76
2019-01-25T03:38:39.482Z,86.76
2019-01-25T03:39:39.459Z,86.96
2019-01-25T03:40:39.454Z,86.76
2019-01-25T03:41:39.464Z,86.86
2019-01-25T03:42:39.436Z,87.38
2019-01-25T03:43:39.414Z,86.65
2019-01-25T03:44:39.463Z,86.76
2019-01-25T03:45:39.402Z,87.28
2019-01-25T03:46:39.426Z,87.07
2019-01-25T03:47:39.378Z,87.17
2019-01-25T03:48:39.372Z,86.65
2019-01-25T03:49:39.351Z,87.28
2019-01-25T03:50:39.347Z,87.49
2019-01-25T03:51:39.364Z,87.49
2019-01-25T03:52:39.348Z,88.12
2019-01-25T03:53:39.311Z,88.43
2019-01-25T03:54:39.300Z,88.01
2019-01-25T03:55:39.291Z,88.22
2019-01-25T03:56:39.278Z,88.01
2019-01-25T03:57:39.334Z,87.91
2019-01-25T03:58:39.261Z,87.80
2019-01-25T03:59:40.154Z,88.01
2019-01-25T04:00:39.240Z,88.22
2019-01-25T04:01:39.233Z,88.32
2019-01-25T04:02:39.252Z,88.22
2019-01-25T04:03:39.227Z,87.70
2019-01-25T04:04:39.202Z,88.39
2019-01-25T04:05:39.198Z,87.49
2019-01-25T04:06:39.173Z,87.59
2019-01-25T04:07:39.188Z,88.18
2019-01-25T04:08:39.179Z,88.39
2019-01-25T04:09:39.188Z,88.75
2019-01-25T04:10:39.135Z,88.49
2019-01-25T04:11:39.205Z,88.22
2019-01-25T04:12:39.111Z,87.91
2019-01-25T04:13:39.123Z,87.76
2019-01-25T04:14:39.123Z,87.59
2019-01-25T04:15:39.080Z,87.49
2019-01-25T04:16:39.070Z,87.76
2019-01-25T04:17:39.114Z,87.55
2019-01-25T04:18:39.076Z,88.22
2019-01-25T04:19:39.050Z,87.87
2019-01-25T04:20:39.055Z,88.32
2019-01-25T04:21:39.017Z,88.29
2019-01-25T04:22:39.011Z,87.49
2019-01-25T04:23:39.095Z,88.32
2019-01-25T04:24:38.986Z,87.97
2019-01-25T04:25:38.978Z,88.32
2019-01-25T04:26:38.964Z,87.97
2019-01-25T04:27:38.959Z,88.29
2019-01-25T04:28:38.951Z,88.29
2019-01-25T04:29:38.985Z,88.49
2019-01-25T04:30:38.946Z,88.39
2019-01-25T04:31:38.927Z,88.54
2019-01-25T04:32:38.902Z,88.92
2019-01-25T04:33:38.901Z,89.37
2019-01-25T04:34:38.910Z,88.85
2019-01-25T04:35:38.900Z,88.64
2019-01-25T04:36:38.862Z,89.02
2019-01-25T04:37:38.853Z,89.02
2019-01-25T04:38:38.844Z,88.92
2019-01-25T04:39:38.881Z,89.02
2019-01-25T04:40:38.826Z,89.12
2019-01-25T04:41:38.828Z,88.85
2019-01-25T04:42:38.804Z,89.23
2019-01-25T04:43:38.813Z,89.23
2019-01-25T04:44:38.791Z,88.49
2019-01-25T04:45:38.795Z,89.12
2019-01-25T04:46:38.764Z,88.71
2019-01-25T04:47:38.808Z,88.60
2019-01-25T04:48:38.736Z,88.92
2019-01-25T04:49:38.735Z,88.71
2019-01-25T04:50:38.789Z,89.02
2019-01-25T04:51:38.709Z,88.92
2019-01-25T04:52:38.696Z,89.06
2019-01-25T04:53:38.719Z,89.02
2019-01-25T04:54:38.755Z,89.02
2019-01-25T04:55:38.689Z,88.75
2019-01-25T04:56:38.656Z,88.60
2019-01-25T04:57:38.646Z,88.71
2019-01-25T04:58:38.643Z,89.02
2019-01-25T04:59:38.633Z,89.65
2019-01-25T05:00:38.655Z,89.69
2019-01-25T05:01:38.622Z,89.65
2019-01-25T05:02:38.652Z,89.75
2019-01-25T05:03:38.828Z,89.34
2019-01-25T05:04:38.707Z,89.75
2019-01-25T05:05:38.679Z,89.75
2019-01-25T05:06:38.636Z,89.86
2019-01-25T05:07:38.597Z,89.86
2019-01-25T05:08:38.600Z,89.23
2019-01-25T05:09:38.542Z,89.65
2019-01-25T05:10:38.519Z,89.75
2019-01-25T05:11:38.598Z,89.23
2019-01-25T05:12:38.553Z,89.97
2019-01-25T05:13:38.475Z,89.54
2019-01-25T05:14:38.476Z,89.86
2019-01-25T05:15:38.477Z,89.34
2019-01-25T05:16:38.468Z,88.60
2019-01-25T05:17:38.456Z,88.92
2019-01-25T05:18:38.426Z,88.71
2019-01-25T05:19:38.413Z,88.60
2019-01-25T05:20:38.472Z,88.60
2019-01-25T05:21:38.452Z,88.92
2019-01-25T05:22:38.419Z,88.92
2019-01-25T05:23:38.448Z,89.12
2019-01-25T05:24:38.367Z,89.27
2019-01-25T05:25:38.356Z,88.71
2019-01-25T05:26:38.353Z,89.23
2019-01-25T05:27:38.328Z,89.12
2019-01-25T05:28:38.360Z,88.81
2019-01-25T05:29:38.313Z,88.71
2019-01-25T05:30:38.306Z,89.23
2019-01-25T05:31:38.288Z,89.02
2019-01-25T05:32:38.303Z,88.92
2019-01-25T05:33:38.292Z,88.71
2019-01-25T05:34:38.277Z,88.81
2019-01-25T05:35:38.257Z,89.44
2019-01-25T05:36:38.241Z,89.34
2019-01-25T05:37:38.225Z,89.34
2019-01-25T05:38:38.248Z,88.71
2019-01-25T05:39:38.209Z,89.02
2019-01-25T05:40:38.201Z,88.81
2019-01-25T05:41:38.189Z,88.81
2019-01-25T05:42:38.189Z,88.60
2019-01-25T05:43:38.189Z,88.92
2019-01-25T05:44:38.151Z,88.60
2019-01-25T05:45:38.140Z,88.60
2019-01-25T05:46:38.134Z,88.71
2019-01-25T05:47:38.118Z,89.02
2019-01-25T05:48:38.156Z,89.02
2019-01-25T05:49:38.108Z,89.65
2019-01-25T05:50:38.099Z,89.54
2019-01-25T05:51:38.077Z,89.34
2019-01-25T05:52:38.077Z,89.34
2019-01-25T05:53:38.062Z,89.34
2019-01-25T05:54:38.078Z,89.44
2019-01-25T05:55:38.056Z,89.34
2019-01-25T05:56:38.029Z,89.86
2019-01-25T05:57:38.018Z,89.86
2019-01-25T05:58:38.018Z,88.87
2019-01-25T05:59:38.032Z,89.75
2019-01-25T06:00:38.076Z,89.34
2019-01-25T06:01:37.997Z,89.82
2019-01-25T06:02:37.968Z,89.65
2019-01-25T06:03:38.084Z,89.86
2019-01-25T06:04:38.076Z,89.65
2019-01-25T06:05:37.935Z,89.44
2019-01-25T06:06:38.619Z,89.75
2019-01-25T06:07:37.917Z,89.44
2019-01-25T06:08:43.813Z,89.72
2019-01-25T06:09:38.940Z,89.23
2019-01-25T06:10:37.884Z,89.44
2019-01-25T06:11:37.928Z,90.17
2019-01-25T06:12:37.876Z,89.65
2019-01-25T06:13:37.849Z,89.75
2019-01-25T06:14:37.873Z,89.65
2019-01-25T06:15:37.864Z,89.86
2019-01-25T06:16:37.830Z,89.75
2019-01-25T06:17:37.884Z,89.82
2019-01-25T06:18:37.805Z,89.65
2019-01-25T06:19:37.827Z,89.65
2019-01-25T06:20:37.781Z,89.82
2019-01-25T06:21:37.773Z,90.07
2019-01-25T06:22:37.819Z,90.17
2019-01-25T06:23:37.752Z,89.86
2019-01-25T06:24:37.805Z,89.65
2019-01-25T06:25:37.795Z,90.17
2019-01-25T06:26:37.732Z,89.54
2019-01-25T06:27:38.091Z,90.07
2019-01-25T06:28:37.691Z,89.86
2019-01-25T06:29:37.707Z,89.72
2019-01-25T06:30:37.677Z,90.28
2019-01-25T06:31:37.708Z,89.72
2019-01-25T06:32:37.694Z,89.97
2019-01-25T06:33:37.643Z,89.65
2019-01-25T06:34:37.669Z,89.65
2019-01-25T06:35:37.637Z,89.09
2019-01-25T06:36:37.716Z,89.65
2019-01-25T06:37:37.652Z,89.86
2019-01-25T06:38:37.610Z,89.40
2019-01-25T06:39:37.616Z,89.40
2019-01-25T06:40:37.568Z,89.75
2019-01-25T06:41:43.998Z,89.92
2019-01-25T06:42:38.585Z,89.86
2019-01-25T06:43:37.592Z,90.23
2019-01-25T06:44:37.578Z,89.19
2019-01-25T06:45:37.549Z,89.23
2019-01-25T06:46:37.508Z,89.50
2019-01-25T06:47:37.495Z,89.72
2019-01-25T06:48:37.485Z,89.19
2019-01-25T06:49:37.571Z,89.82
2019-01-25T06:50:37.490Z,89.72
2019-01-25T06:51:37.456Z,89.72
2019-01-25T06:52:37.451Z,89.50
2019-01-25T06:53:37.592Z,89.40
2019-01-25T06:54:37.426Z,89.82
2019-01-25T06:55:37.465Z,88.87
2019-01-25T06:56:37.409Z,89.61
2019-01-25T06:57:37.393Z,89.29
2019-01-25T06:58:37.407Z,89.40
2019-01-25T06:59:37.377Z,89.72
2019-01-25T07:00:37.404Z,89.40
2019-01-25T07:01:37.351Z,89.72
2019-01-25T07:02:37.342Z,89.61
2019-01-25T07:03:37.329Z,89.92
2019-01-25T07:04:37.347Z,89.92
2019-01-25T07:05:37.349Z,89.61
2019-01-25T07:06:37.326Z,89.61
2019-01-25T07:07:37.290Z,89.61
2019-01-25T07:08:37.348Z,89.61
2019-01-25T07:09:37.306Z,90.03
2019-01-25T07:10:37.259Z,89.72
2019-01-25T07:11:42.091Z,90.03
2019-01-25T07:12:38.236Z,89.50
2019-01-25T07:13:37.275Z,89.29
2019-01-25T07:14:37.263Z,89.40
2019-01-25T07:15:37.207Z,89.82
2019-01-25T07:16:37.243Z,89.61
2019-01-25T07:17:37.185Z,89.40
2019-01-25T07:18:37.190Z,89.86
2019-01-25T07:19:37.892Z,89.72
2019-01-25T07:20:37.158Z,89.40
2019-01-25T07:21:37.171Z,89.57
2019-01-25T07:22:37.131Z,89.92
2019-01-25T07:23:37.126Z,89.19
2019-01-25T07:24:37.115Z,89.61
2019-01-25T07:25:37.144Z,89.15
2019-01-25T07:26:37.119Z,89.36
2019-01-25T07:27:37.092Z,89.82
2019-01-25T07:28:37.091Z,89.82
2019-01-25T07:29:37.096Z,89.82
2019-01-25T07:30:37.063Z,89.88
2019-01-25T07:31:37.108Z,89.92
2019-01-25T07:32:37.041Z,89.67
2019-01-25T07:33:37.162Z,89.50
2019-01-25T07:34:37.008Z,89.78
2019-01-25T07:35:37.072Z,89.72
2019-01-25T07:36:37.046Z,89.61
2019-01-25T07:37:37.003Z,89.92
2019-01-25T07:38:36.969Z,89.82
2019-01-25T07:39:36.957Z,89.15
2019-01-25T07:40:37.039Z,89.67
2019-01-25T07:41:36.953Z,89.36
2019-01-25T07:42:36.956Z,89.57
2019-01-25T07:43:36.965Z,89.57
2019-01-25T07:44:36.949Z,89.88
2019-01-25T07:45:36.941Z,89.47
2019-01-25T07:46:36.994Z,89.36
2019-01-25T07:47:36.897Z,89.78
2019-01-25T07:48:36.860Z,89.47
2019-01-25T07:49:36.983Z,89.57
2019-01-25T07:50:36.857Z,89.88
2019-01-25T07:51:36.890Z,89.25
2019-01-25T07:52:36.845Z,89.36
2019-01-25T07:53:36.950Z,89.78
2019-01-25T07:54:36.820Z,89.67
2019-01-25T07:55:36.788Z,89.47
2019-01-25T07:56:36.786Z,89.15
2019-01-25T07:57:36.817Z,89.78
2019-01-25T07:58:36.812Z,89.73
2019-01-25T07:59:36.829Z,89.47
2019-01-25T08:00:36.763Z,89.47
2019-01-25T08:01:36.730Z,89.36
2019-01-25T08:02:36.728Z,89.22
2019-01-25T08:03:36.791Z,89.36
2019-01-25T08:04:36.822Z,89.88
2019-01-25T08:05:36.715Z,89.57
2019-01-25T08:06:36.685Z,89.57
2019-01-25T08:07:36.709Z,89.57
2019-01-25T08:08:36.703Z,89.57
2019-01-25T08:09:36.654Z,89.53
2019-01-25T08:10:36.643Z,89.67
2019-01-25T08:11:36.633Z,89.67
2019-01-25T08:12:36.614Z,90.20
2019-01-25T08:13:36.653Z,89.22
2019-01-25T08:14:36.706Z,89.73
2019-01-25T08:15:36.583Z,90.36
2019-01-25T08:16:36.613Z,89.84
2019-01-25T08:17:36.613Z,89.63
2019-01-25T08:18:36.568Z,89.42
2019-01-25T08:19:36.579Z,89.95
2019-01-25T08:20:36.535Z,89.73
2019-01-25T08:21:36.617Z,89.42
2019-01-25T08:22:36.521Z,89.84
2019-01-25T08:23:36.501Z,89.95
2019-01-25T08:24:36.523Z,89.53
2019-01-25T08:25:36.490Z,89.95
2019-01-25T08:26:36.476Z,89.84
2019-01-25T08:27:36.556Z,89.73
2019-01-25T08:28:36.446Z,89.42
2019-01-25T08:29:36.486Z,89.63
2019-01-25T08:30:36.430Z,89.53
2019-01-25T08:31:36.438Z,89.84
2019-01-25T08:32:36.445Z,89.95
2019-01-25T08:33:36.421Z,89.63
2019-01-25T08:34:36.453Z,89.22
2019-01-25T08:35:36.424Z,89.53
2019-01-25T08:36:36.364Z,89.63
2019-01-25T08:37:36.362Z,89.73
2019-01-25T08:38:36.356Z,89.73
2019-01-25T08:39:36.453Z,89.38
2019-01-25T08:40:36.360Z,89.42
2019-01-25T08:41:36.318Z,89.32
2019-01-25T08:42:36.352Z,89.73
2019-01-25T08:43:36.297Z,89.42
2019-01-25T08:44:36.353Z,89.70
2019-01-25T08:45:36.375Z,89.28
2019-01-25T08:46:36.295Z,89.17
2019-01-25T08:47:36.435Z,89.07
2019-01-25T08:48:36.246Z,88.96
2019-01-25T08:49:36.314Z,89.38
2019-01-25T08:50:36.216Z,89.17
2019-01-25T08:51:36.569Z,89.38
2019-01-25T08:52:36.271Z,89.45
2019-01-25T08:53:36.190Z,89.80
2019-01-25T08:54:36.193Z,88.61
2019-01-25T08:55:36.207Z,88.86
2019-01-25T08:56:36.245Z,88.75
2019-01-25T08:57:36.174Z,88.75
2019-01-25T08:58:36.173Z,88.50
2019-01-25T08:59:36.123Z,88.82
2019-01-25T09:00:36.117Z,88.86
2019-01-25T09:01:36.139Z,88.40
2019-01-25T09:02:36.092Z,88.50
2019-01-25T09:03:36.094Z,88.29
2019-01-25T09:04:36.090Z,88.54
2019-01-25T09:05:36.072Z,88.40
2019-01-25T09:06:36.083Z,88.44
2019-01-25T09:07:36.061Z,88.50
2019-01-25T09:08:36.024Z,88.34
2019-01-25T09:09:36.022Z,88.29
2019-01-25T09:10:36.060Z,88.40
2019-01-25T09:11:36.039Z,89.03
2019-01-25T09:12:35.986Z,88.50
2019-01-25T09:13:35.984Z,88.19
2019-01-25T09:14:35.993Z,88.40
2019-01-25T09:15:35.962Z,87.15
2019-01-25T09:16:36.042Z,87.98
2019-01-25T09:17:35.959Z,87.94
2019-01-25T09:18:35.925Z,87.94
2019-01-25T09:19:36.018Z,87.73
2019-01-25T09:20:35.939Z,87.63
2019-01-25T09:21:36.012Z,87.84
2019-01-25T09:22:35.908Z,87.73
2019-01-25T09:23:35.882Z,87.84
2019-01-25T09:24:35.868Z,87.48
2019-01-25T09:25:35.850Z,87.59
2019-01-25T09:26:35.899Z,87.84
2019-01-25T09:27:35.879Z,88.04
2019-01-25T09:28:35.853Z,87.80
2019-01-25T09:29:35.900Z,87.52
2019-01-25T09:30:35.795Z,87.80
2019-01-25T09:31:35.801Z,87.59
2019-01-25T09:32:35.805Z,87.59
2019-01-25T09:33:35.825Z,87.59
2019-01-25T09:34:35.759Z,87.86
2019-01-25T09:35:35.749Z,87.76
2019-01-25T09:36:35.737Z,86.77
2019-01-25T09:37:35.806Z,86.46
2019-01-25T09:38:35.717Z,86.36
2019-01-25T09:39:35.715Z,85.94
2019-01-25T09:40:35.698Z,85.83
2019-01-25T09:41:35.678Z,85.59
2019-01-25T09:42:35.734Z,84.48
2019-01-25T09:43:35.702Z,84.69
2019-01-25T09:44:35.655Z,84.75
2019-01-25T09:45:35.722Z,85.38
2019-01-25T09:46:35.694Z,85.49
2019-01-25T09:47:35.641Z,84.55
2019-01-25T09:48:35.639Z,84.12
2019-01-25T09:49:35.617Z,84.34
2019-01-25T09:50:35.601Z,84.23
2019-01-25T09:51:35.581Z,85.59
2019-01-25T09:52:35.590Z,84.96
2019-01-25T09:53:35.633Z,84.75
2019-01-25T09:54:35.581Z,85.17
2019-01-25T09:55:35.542Z,85.38
2019-01-25T09:56:35.601Z,85.69
2019-01-25T09:57:35.514Z,85.49
2019-01-25T09:58:35.528Z,85.27
2019-01-25T09:59:35.546Z,85.27
2019-01-25T10:00:35.486Z,85.83
2019-01-25T10:01:35.476Z,85.06
2019-01-25T10:02:35.462Z,84.86
2019-01-25T10:03:35.482Z,85.63
2019-01-25T10:04:35.487Z,85.17
2019-01-25T10:05:35.443Z,85.69
2019-01-25T10:06:35.425Z,85.94
2019-01-25T10:07:35.436Z,86.11
2019-01-25T10:08:35.436Z,85.94
2019-01-25T10:09:35.391Z,86.11
2019-01-25T10:10:35.385Z,85.49
2019-01-25T10:11:35.375Z,85.27
2019-01-25T10:12:43.096Z,85.06
2019-01-25T10:13:36.405Z,85.24
2019-01-25T10:14:35.353Z,85.49
2019-01-25T10:15:35.345Z,85.24
2019-01-25T10:16:35.338Z,85.97
2019-01-25T10:17:35.322Z,85.34
2019-01-25T10:18:35.320Z,85.34
2019-01-25T10:19:35.350Z,85.55
2019-01-25T10:20:35.284Z,85.34
2019-01-25T10:21:35.265Z,84.50
2019-01-25T10:22:35.267Z,84.19
2019-01-25T10:23:39.201Z,84.72
2019-01-25T10:24:35.241Z,84.50
2019-01-25T10:25:35.230Z,84.50
2019-01-25T10:26:35.255Z,84.61
2019-01-25T10:27:35.206Z,84.30
2019-01-25T10:28:35.242Z,84.30
2019-01-25T10:29:35.285Z,84.72
2019-01-25T10:30:35.173Z,84.61
2019-01-25T10:31:35.189Z,84.72
2019-01-25T10:32:35.164Z,85.03
2019-01-25T10:33:35.149Z,84.30
2019-01-25T10:34:35.156Z,84.30
2019-01-25T10:35:35.133Z,84.88
2019-01-25T10:36:35.206Z,85.10
2019-01-25T10:37:35.109Z,84.36
2019-01-25T10:38:35.119Z,84.05
2019-01-25T10:39:35.128Z,84.47
2019-01-25T10:40:35.079Z,84.01
2019-01-25T10:41:35.117Z,84.16
2019-01-25T10:42:35.054Z,84.43
2019-01-25T10:43:35.040Z,83.80
2019-01-25T10:44:35.069Z,84.64
2019-01-25T10:45:35.048Z,84.12
2019-01-25T10:46:35.022Z,83.28
2019-01-25T10:47:35.016Z,83.70
2019-01-25T10:48:34.998Z,83.28
2019-01-25T10:49:35.056Z,83.07
2019-01-25T10:50:35.011Z,83.80
2019-01-25T10:51:35.008Z,83.18
2019-01-25T10:52:35.002Z,83.76
2019-01-25T10:53:34.941Z,83.87
2019-01-25T10:54:35.138Z,83.62
2019-01-25T10:55:34.957Z,82.89
2019-01-25T10:56:34.962Z,81.85
2019-01-25T10:57:34.903Z,81.96
2019-01-25T10:58:34.913Z,81.43
2019-01-25T10:59:34.869Z,81.85
2019-01-25T11:00:34.892Z,81.75
2019-01-25T11:01:34.880Z,81.54
2019-01-25T11:02:34.908Z,81.65
2019-01-25T11:03:34.836Z,81.54
2019-01-25T11:04:34.892Z,81.75
2019-01-25T11:05:34.826Z,82.20
2019-01-25T11:06:34.828Z,82.17
2019-01-25T11:07:34.881Z,82.72
2019-01-25T11:08:34.778Z,82.41
2019-01-25T11:09:38.041Z,82.51
2019-01-25T11:10:34.854Z,82.68
2019-01-25T11:11:34.840Z,82.48
2019-01-25T11:12:34.749Z,83.00
2019-01-25T11:13:34.728Z,83.20
2019-01-25T11:14:34.715Z,81.75
2019-01-25T11:15:34.699Z,81.65
2019-01-25T11:16:34.857Z,81.65
2019-01-25T11:17:36.510Z,82.58
2019-01-25T11:18:34.682Z,83.20
2019-01-25T11:19:34.660Z,83.83
2019-01-25T11:20:34.702Z,83.00
2019-01-25T11:21:37.518Z,83.14
2019-01-25T11:22:34.682Z,83.97
2019-01-25T11:23:34.629Z,83.97
2019-01-25T11:24:34.628Z,83.66
2019-01-25T11:25:34.689Z,83.76
2019-01-25T11:26:34.583Z,83.97
2019-01-25T11:27:34.638Z,84.60
2019-01-25T11:28:34.599Z,85.36
2019-01-25T11:29:34.553Z,84.50
2019-01-25T11:30:34.545Z,83.97
2019-01-25T11:31:34.556Z,84.28
2019-01-25T11:32:36.078Z,84.28
2019-01-25T11:33:34.601Z,83.76
2019-01-25T11:34:34.505Z,84.08
2019-01-25T11:35:34.505Z,83.76
2019-01-25T11:36:34.520Z,84.18
2019-01-25T11:37:34.563Z,83.94
2019-01-25T11:38:34.500Z,84.45
2019-01-25T11:39:34.457Z,84.11
2019-01-25T11:40:34.435Z,82.86
2019-01-25T11:41:34.491Z,82.86
2019-01-25T11:42:34.462Z,81.81
2019-01-25T11:43:34.434Z,81.92
2019-01-25T11:44:34.507Z,82.03
2019-01-25T11:45:34.401Z,82.13
2019-01-25T11:46:34.371Z,81.92
2019-01-25T11:47:34.364Z,82.23
2019-01-25T11:48:34.481Z,82.54
2019-01-25T11:49:34.372Z,83.06
2019-01-25T11:50:34.416Z,83.06
2019-01-25T11:51:34.332Z,82.27
2019-01-25T11:52:34.318Z,83.17
2019-01-25T11:53:34.464Z,83.03
2019-01-25T11:54:34.296Z,83.96
2019-01-25T11:55:34.280Z,83.75
2019-01-25T11:56:34.277Z,83.13
2019-01-25T11:57:34.275Z,83.30
2019-01-25T11:58:34.300Z,81.95
2019-01-25T11:59:34.235Z,81.12
2019-01-25T12:00:34.277Z,81.29
2019-01-25T12:01:34.231Z,80.77
2019-01-25T12:02:34.200Z,80.35
2019-01-25T12:03:34.232Z,79.94
2019-01-25T12:04:34.185Z,80.49
2019-01-25T12:05:34.169Z,81.18
2019-01-25T12:06:34.161Z,82.05
2019-01-25T12:07:34.144Z,81.08
2019-01-25T12:08:34.182Z,81.12
2019-01-25T12:09:34.150Z,81.53
2019-01-25T12:10:34.122Z,81.88
2019-01-25T12:11:34.104Z,81.67
2019-01-25T12:12:34.124Z,81.88
2019-01-25T12:13:34.094Z,82.09
2019-01-25T12:14:34.100Z,81.95
2019-01-25T12:15:34.060Z,81.74
2019-01-25T12:16:34.140Z,80.66
2019-01-25T12:17:34.066Z,80.08
2019-01-25T12:18:34.072Z,81.32
2019-01-25T12:19:34.058Z,80.46
2019-01-25T12:20:34.006Z,80.87
2019-01-25T12:21:34.019Z,81.29
2019-01-25T12:22:34.089Z,79.94
2019-01-25T12:23:34.083Z,79.94
2019-01-25T12:24:33.974Z,80.42
2019-01-25T12:25:33.986Z,79.80
2019-01-25T12:26:34.031Z,80.63
2019-01-25T12:27:33.933Z,79.90
2019-01-25T12:28:33.924Z,79.48
2019-01-25T12:29:33.942Z,80.00
2019-01-25T12:30:37.714Z,80.32
2019-01-25T12:31:33.906Z,80.11
2019-01-25T12:32:34.097Z,79.80
2019-01-25T12:33:33.869Z,79.24
2019-01-25T12:34:33.874Z,80.18
2019-01-25T12:35:33.948Z,79.65
2019-01-25T12:36:33.851Z,79.44
2019-01-25T12:37:34.510Z,78.41
2019-01-25T12:38:33.839Z,79.03
2019-01-25T12:39:33.816Z,79.13
2019-01-25T12:40:33.844Z,79.65
2019-01-25T12:41:33.869Z,79.30
2019-01-25T12:42:33.769Z,78.72
2019-01-25T12:43:33.784Z,78.89
2019-01-25T12:44:33.879Z,78.30
2019-01-25T12:45:33.869Z,78.37
2019-01-25T12:46:33.748Z,78.27
2019-01-25T12:47:33.785Z,77.64
2019-01-25T12:48:33.711Z,77.33
2019-01-25T12:49:33.696Z,77.75
2019-01-25T12:50:33.721Z,77.23
2019-01-25T12:51:33.744Z,78.06
2019-01-25T12:52:33.831Z,78.58